Station PDVR1 - 8454123 - Port of Davisville, RI Image indicating link to RSS feed of recent meteorological observations for station PDVR1


Conditions at PDVR1 as of
(3:30 pm EDT)
1930 GMT on 08/31/2026:
     

Click on the graph icon in the table below to see a time series plot of the last five days of that observation.

5-day plot - Wind Direction Wind Direction (WDIR):SSE ( 160 deg true )
5-day plot - Wind Speed Wind Speed (WSPD): 11.1 kts
5-day plot - Wind Gust Wind Gust (GST): 15.0 kts
5-day plot - Atmospheric Pressure Atmospheric Pressure (PRES):30.10 in
5-day plot - Air Temperature Air Temperature (ATMP): 72.1 °F
5-day plot - Dew Point Dew Point (DEWP): 60.3 °F
5-day plot - Wind Speed at 10 Meters Wind Speed at 10 meters (WSPD10M): 11.7 kts
5-day plot - Wind Speed at 20 Meters Wind Speed at 20 meters (WSPD20M): 11.7 kts
5-day plot -  Wind Speed, Wind Gust and Atmospheric Pressure Combined plot of Wind Speed, Gust, and Air Pressure
NOS Water Level Observation Network Water Level
Previous observations
TIME
(EDT)
5-day plot - Wind Direction
WDIR
 
5-day plot - Wind Speed
WSPD
kts
5-day plot - Wind Gust
GST
kts
5-day plot - Wave Height
WVHT
ft
5-day plot - Dominant Wave Period
DPD
sec
5-day plot - Average Wave Period
APD
sec
5-day plot - Mean Wave Direction
MWD
 
5-day plot - Atmospheric Pressure
PRES
in
5-day plot - Pressure Tendency
PTDY
in
5-day plot - Air Temperature
ATMP
°F
5-day plot - Water Temperature
WTMP
°F
5-day plot - Dew Point
DEWP
°F
5-day plot - Salinity
SAL
psu
5-day plot - Visibility
VIS
nmi
5-day plot - Tide (above MLLW)
TIDE
ft
2026-08-31 03:24 pmSSE 9.9 9.9----30.10- 72.3- 61.7---
2026-08-31 03:18 pm SE 9.9 11.1----30.10-------
2026-08-31 03:12 pmSSE 11.1 12.0----30.10-------
2026-08-31 03:06 pmSSE 11.1 12.0----30.10-------
2026-08-31 03:00 pmSSE 11.1 12.0----30.10-0.03 72.3- 63.1---
2026-08-31 02:54 pm S 11.1 12.0----30.10- 72.5- 63.5---
2026-08-31 02:48 pmSSE 9.9 12.0----30.10- 72.5- 62.8---
2026-08-31 02:42 pmSSE 8.9 11.1----30.11- 72.7- 61.0---
2026-08-31 02:36 pmSSE 8.9 11.1----30.11- 73.0- 59.4---
2026-08-31 02:30 pmESE 6.0 7.0----30.11- 74.3- 55.9---
2026-08-31 02:24 pmESE 5.1 6.0----30.11- 74.5- 56.1---
2026-08-31 02:18 pm SE 2.9 4.1----30.11-------
2026-08-31 02:12 pm SE 2.9 2.9----30.11-------
2026-08-31 02:06 pmESE 1.9 2.9----30.11-------
2026-08-31 02:00 pmESE 1.9 2.9----30.12-0.03 74.1- 53.8---
2026-08-31 01:54 pmESE 1.9 4.1----30.12- 74.1- 56.3---
2026-08-31 01:48 pmESE 2.9 2.9----30.12-------
2026-08-31 01:42 pmESE 1.9 1.9----30.12-------
2026-08-31 01:36 pmESE 1.9 2.9----30.12-------
2026-08-31 01:30 pmESE 1.9 2.9----30.12- 73.8- 57.0---
2026-08-31 01:24 pm E 2.9 4.1----30.12- 73.4- 58.1---
2026-08-31 01:18 pm E 4.1 4.1----30.12-------
2026-08-31 01:12 pm E 4.1 4.1----30.12-------
2026-08-31 01:06 pm E 2.9 2.9----30.12-------
2026-08-31 01:00 pm E 2.9 4.1----30.12-0.01 73.6- 59.7---
2026-08-31 12:54 pm E 2.9 2.9----30.12- 73.8- 59.0---
2026-08-31 12:48 pm E 1.9 4.1----30.13- 73.4- 58.8---
2026-08-31 12:42 pm NE 1.9 2.9----30.13- 73.4- 58.5---
2026-08-31 12:36 pm NE 1.9 4.1----30.14- 73.2- 58.6---
2026-08-31 12:30 pmNNE 2.9 4.1----30.13- 73.0- 58.6---
2026-08-31 12:24 pm NE 1.9 4.1----30.14- 73.4- 59.2---
2026-08-31 12:18 pm NE 1.9 5.1----30.14-------
2026-08-31 12:12 pm NE 1.9 4.1----30.13-------
2026-08-31 12:06 pm NE 2.9 5.1----30.14-------
2026-08-31 12:00 pm NE 4.1 6.0----30.13+0.01 72.0- 58.6---
2026-08-31 11:54 am NE 2.9 6.0----30.13- 72.3- 58.6---
2026-08-31 11:48 am NE 2.9 5.1----30.14- 72.1- 58.5---
2026-08-31 11:42 am NE 2.9 5.1----30.14- 72.3- 58.3---
2026-08-31 11:36 am NE 4.1 5.1----30.14- 72.5- 58.6---
2026-08-31 11:30 am N 4.1 5.1----30.14- 73.2- 58.5---
2026-08-31 11:24 amNNE 2.9 7.0----30.14- 72.1- 58.6---
2026-08-31 11:18 amNNE 4.1 6.0----30.14-------
2026-08-31 11:12 amNNE 2.9 5.1----30.14-------
2026-08-31 11:06 am N 2.9 6.0----30.14-------
2026-08-31 11:00 am N 2.9 6.0----30.14+0.03 72.0- 58.6---
2026-08-31 10:54 amNNE 5.1 7.0----30.14- 72.0- 58.1---
2026-08-31 10:48 amNNE 6.0 8.0----30.14- 71.6- 59.2---
2026-08-31 10:42 am NE 6.0 8.0----30.14- 71.4- 57.9---
2026-08-31 10:36 amNNE 6.0 8.0----30.14- 71.2- 58.8---
2026-08-31 10:30 amNNE 7.0 11.1----30.14- 71.2- 58.8---
2026-08-31 10:24 am N 7.0 8.9----30.14- 71.1- 58.8---
2026-08-31 10:18 am N 7.0 8.9----30.14-------
2026-08-31 10:12 amNNE 6.0 8.9----30.14-------
2026-08-31 10:06 am N 8.0 11.1----30.14-------
2026-08-31 10:00 am N 8.0 12.0----30.13+0.03 71.2- 58.8---
2026-08-31 09:54 am N 8.0 11.1----30.13- 70.7- 58.6---
2026-08-31 09:48 amNNE 8.0 9.9----30.13-------
2026-08-31 09:42 amNNE 8.0 9.9----30.13-------
2026-08-31 09:36 amNNE 8.0 11.1----30.12-------
2026-08-31 09:30 am N 8.0 9.9----30.12- 70.5- 59.2---
2026-08-31 09:24 am N 8.9 11.1----30.12- 70.3- 59.0---
2026-08-31 09:18 amNNE 8.9 12.0----30.12-------
2026-08-31 09:12 am N 8.0 11.1----30.12-------
2026-08-31 09:06 am N 7.0 12.0----30.12-------
2026-08-31 09:00 am N 8.9 12.0----30.12+0.04 70.2- 59.5---
2026-08-31 08:54 amNNE 8.9 12.0----30.12- 70.0- 59.9---
2026-08-31 08:48 am N 8.0 11.1----30.12-------
2026-08-31 08:42 am N 8.9 11.1----30.12-------
2026-08-31 08:36 am N 7.0 8.9----30.12-------
2026-08-31 08:30 am N 7.0 8.9----30.12- 69.4- 62.6---
2026-08-31 08:24 am N 7.0 9.9----30.12- 69.3- 63.1---
2026-08-31 08:18 am N 6.0 8.0----30.12-------
2026-08-31 08:12 am N 6.0 8.0----30.12-------
2026-08-31 08:06 am N 7.0 8.0----30.11-------
2026-08-31 08:00 am N 6.0 8.0----30.11+0.05 68.4- 62.8---
2026-08-31 07:54 am N 5.1 7.0----30.11- 68.2- 62.8---
2026-08-31 07:48 am N 5.1 8.0----30.11-------
2026-08-31 07:42 am N 6.0 7.0----30.11-------
2026-08-31 07:36 am N 5.1 7.0----30.11-------
2026-08-31 07:30 amNNW 5.1 8.0----30.11- 67.1- 63.5---
2026-08-31 07:24 amNNW 5.1 8.0----30.11- 66.9- 63.5---
2026-08-31 07:18 am N 6.0 8.0----30.10-------
2026-08-31 07:12 am N 6.0 8.0----30.10-------
2026-08-31 07:06 amNNW 4.1 5.1----30.10-------
2026-08-31 07:00 amNNW 2.9 5.1----30.11+0.05 66.0- 63.9---
2026-08-31 06:54 amNNW 4.1 5.1----30.10- 65.7- 63.7---
2026-08-31 06:48 amNNW 4.1 4.1----30.10- 65.5- 63.5---
2026-08-31 06:42 amNNW 2.9 5.1----30.10- 65.5- 63.7---
2026-08-31 06:36 am NW 2.9 4.1----30.10- 65.5- 63.7---
2026-08-31 06:30 am NW 1.9 2.9----30.09- 65.3- 63.5---
2026-08-31 06:24 am NW 1.9 4.1----30.09- 65.3- 63.7---
2026-08-31 06:18 am NW 1.9 2.9----30.09-------
2026-08-31 06:12 am NW 1.0 4.1----30.09-------
2026-08-31 06:06 am NW 1.0 1.9----30.09-------
2026-08-31 06:00 amNNW 1.0 1.9----30.09+0.04 64.9- 63.5---
2026-08-31 05:54 am- 0.0 1.9----30.08- 64.9- 63.5---
2026-08-31 05:48 am- 0.0 1.0----30.08- 64.9- 63.5---
2026-08-31 05:42 am- 0.0 1.9----30.07- 64.9- 63.3---
2026-08-31 05:36 am- 0.0 1.9----30.07- 65.1- 63.5---
2026-08-31 05:30 amWNW 1.9 2.9----30.07- 65.3- 63.7---
2026-08-31 05:24 am NW 2.9 4.1----30.07- 65.7- 64.0---
2026-08-31 05:18 am NW 2.9 4.1----30.07-------
2026-08-31 05:12 amWNW 2.9 4.1----30.06-------
2026-08-31 05:06 am NW 2.9 5.1----30.07-------
2026-08-31 05:00 am NW 2.9 5.1----30.06+0.02 66.0- 64.4---
2026-08-31 04:54 amWNW 4.1 5.1----30.06- 66.0- 64.4---
2026-08-31 04:48 amWNW 2.9 5.1----30.06- 66.2- 64.6---
2026-08-31 04:42 amWNW 4.1 5.1----30.06- 66.2- 64.6---
2026-08-31 04:36 amWNW 4.1 5.1----30.06- 66.2- 64.6---
2026-08-31 04:30 amWNW 4.1 7.0----30.06- 66.4- 64.9---
2026-08-31 04:24 amWNW 5.1 6.0----30.06- 66.6- 65.1---
2026-08-31 04:18 amWNW 5.1 6.0----30.06-------
2026-08-31 04:12 amWNW 4.1 5.1----30.06-------
2026-08-31 04:06 amWNW 4.1 6.0----30.06-------
2026-08-31 04:00 amWNW 5.1 7.0----30.06+0.03 66.7- 65.3---
2026-08-31 03:54 amWNW 6.0 7.0----30.06- 66.7- 65.5---
2026-08-31 03:48 am W 5.1 7.0----30.06- 66.6- 65.3---
2026-08-31 03:42 amWNW 5.1 8.0----30.06- 66.7- 65.5---
2026-08-31 03:36 amWNW 5.1 8.0----30.05- 66.9- 65.7---
2026-08-31 03:30 amWNW 6.0 8.9----30.05- 67.1- 65.8---
2026-08-31 03:24 amWNW 6.0 8.0----30.05- 67.1- 65.8---
2026-08-31 03:18 amWNW 6.0 7.0----30.05- 67.1- 65.8---
2026-08-31 03:12 amWNW 6.0 8.0----30.05- 67.3- 66.0---
2026-08-31 03:06 am W 5.1 7.0----30.05- 67.3- 66.0---
2026-08-31 03:00 amWNW 5.1 7.0----30.05+0.01 67.5- 66.4---
2026-08-31 02:54 am W 5.1 6.0----30.04- 67.5- 66.4---
2026-08-31 02:48 am W 4.1 7.0----30.05- 67.5- 66.4---
2026-08-31 02:42 amWNW 5.1 6.0----30.04- 67.6- 66.6---
2026-08-31 02:36 amWNW 5.1 7.0----30.04- 67.6- 66.7---
2026-08-31 02:30 amWNW 5.1 7.0----30.05-------
2026-08-31 02:24 am W 5.1 7.0----30.05-------
2026-08-31 02:18 am--------- 67.5- 66.6---
2026-08-31 02:12 am--------- 67.6- 66.7---
2026-08-31 02:06 am--------- 67.6- 66.6---
2026-08-31 02:00 amWSW 2.9 5.1----30.04+0.01 67.6- 66.6---
2026-08-31 01:54 amWSW 2.9 5.1----30.04- 67.8- 66.6---
2026-08-31 01:48 am W 2.9 5.1----30.04- 68.0- 66.7---
2026-08-31 01:42 amWSW 2.9 6.0----30.04- 68.2- 66.9---
2026-08-31 01:36 am W 4.1 6.0----30.04- 68.2- 66.7---
2026-08-31 01:30 am W 4.1 6.0----30.04- 68.4- 66.9---
2026-08-31 01:24 am W 5.1 7.0----30.04- 68.5- 67.1---
2026-08-31 01:18 am W 4.1 7.0----30.03-------
2026-08-31 01:12 am W 4.1 8.9----30.03-------
2026-08-31 01:06 am W 5.1 8.9----30.03-------
2026-08-31 01:00 am W 5.1 7.0----30.03-0.01 68.9- 67.6---
2026-08-31 12:54 am W 4.1 6.0----30.03- 68.9- 67.6---
2026-08-31 12:48 am W 2.9 5.1----30.03- 68.9- 67.6---
2026-08-31 12:42 am W 2.9 5.1----30.03- 69.1- 67.6---
2026-08-31 12:36 amWSW 2.9 5.1----30.03- 69.1- 67.6---
2026-08-31 12:30 am W 4.1 6.0----30.03- 69.3- 67.6---
2026-08-31 12:24 am W 4.1 6.0----30.03- 69.3- 67.6---
2026-08-31 12:18 am W 2.9 7.0----30.03- 69.4- 67.6---
2026-08-31 12:12 am W 5.1 7.0----30.03- 69.3- 67.5---
2026-08-31 12:06 am W 4.1 7.0----30.03- 69.3- 67.5---
2026-08-31 12:00 am W 4.1 9.9----30.03-0.01 69.4- 67.5---
2026-08-30 11:54 pm W 7.0 15.9----30.03- 69.1- 67.5---
2026-08-30 11:48 pm W 7.0 11.1----30.04- 70.7- 69.8---
2026-08-30 11:42 pmWSW 1.0 4.1----30.03- 70.5- 69.6---
2026-08-30 11:36 pmWSW 1.9 4.1----30.04- 70.7- 69.6---
2026-08-30 11:30 pm SW 1.0 4.1----30.03- 70.5- 69.3---
2026-08-30 11:24 pmWSW 1.0 1.9----30.03- 70.7- 69.3---
2026-08-30 11:18 pm- 0.0 2.9----30.03- 70.3- 68.7---
2026-08-30 11:12 pm- 0.0 1.9----30.03- 70.3- 68.5---
2026-08-30 11:06 pmWSW 1.9 4.1----30.03- 70.0- 67.8---
2026-08-30 11:00 pm SW 1.9 4.1----30.03+0.00 69.6- 67.3---
2026-08-30 10:54 pmSSW 1.9 7.0----30.04- 70.3- 67.8---
2026-08-30 10:48 pm SW 1.0 2.9----30.04- 71.6- 68.7---
2026-08-30 10:42 pm- 0.0 1.9----30.04- 71.8- 68.5---
2026-08-30 10:36 pmSSW 1.0 2.9----30.04- 71.8- 68.5---
2026-08-30 10:30 pm- 0.0 1.0----30.04- 71.8- 68.5---
2026-08-30 10:24 pm- 0.0 2.9----30.04- 71.6- 68.2---
2026-08-30 10:18 pm- 0.0 1.9----30.04-------
2026-08-30 10:12 pm- 0.0 2.9----30.04-------
2026-08-30 10:06 pm- 0.0 1.9----30.04-------
2026-08-30 10:00 pm SW 1.0 4.1----30.04+0.01 72.0- 68.0---
2026-08-30 09:54 pm- 0.0 4.1----30.05- 72.0- 67.8---
2026-08-30 09:48 pm SW 1.0 4.1----30.04- 72.0- 67.6---
2026-08-30 09:42 pm- 0.0 2.9----30.04- 72.1- 67.8---
2026-08-30 09:36 pm SW 1.9 6.0----30.04- 72.1- 67.5---
2026-08-30 09:30 pmSSW 1.9 8.9----30.04- 72.1- 67.3---
2026-08-30 09:24 pmWSW 2.9 7.0----30.04- 72.1- 67.1---
2026-08-30 09:18 pmWSW 4.1 7.0----30.04- 72.5- 66.9---
2026-08-30 09:12 pm SW 1.9 5.1----30.04- 72.9- 67.1---
2026-08-30 09:06 pm SW 1.9 6.0----30.04- 72.9- 66.9---
2026-08-30 09:00 pm SW 1.9 8.0----30.04+0.00 72.9- 66.9---
2026-08-30 08:54 pmSSW 2.9 9.9----30.04- 72.9- 66.9---
2026-08-30 08:48 pm SW 1.9 8.0----30.04-------
2026-08-30 08:42 pm SW 1.0 6.0----30.03-------
2026-08-30 08:36 pm SW 5.1 8.9----30.03-------
2026-08-30 08:30 pm SW 1.0 5.1----30.03- 73.2- 66.9---
2026-08-30 08:24 pm SW 1.0 8.0----30.03- 73.2- 66.9---
2026-08-30 08:18 pm SW 1.9 5.1----30.03-------
2026-08-30 08:12 pmSSW 2.9 7.0----30.03-------
2026-08-30 08:06 pmWSW 1.9 7.0----30.03-------
2026-08-30 08:00 pmSSW 1.9 7.0----30.03-0.01 73.0- 66.9---
2026-08-30 07:54 pm SW 2.9 8.0----30.03- 73.0- 66.9---
2026-08-30 07:48 pmSSW 1.9 6.0----30.03-------
2026-08-30 07:42 pm SW 1.9 4.1----30.03-------
2026-08-30 07:36 pm SW 1.9 7.0----30.03-------
2026-08-30 07:30 pm SW 1.9 8.0----30.03- 73.8- 66.9---
2026-08-30 07:24 pm SW 2.9 7.0----30.03- 73.8- 66.7---
2026-08-30 07:00 pmSSW 1.9 5.1----30.03-0.02 74.1- 66.6---
2026-08-30 06:54 pm- 0.0 2.9----30.03- 74.3- 66.7---
2026-08-30 06:48 pm SW 1.9 4.1----30.03- 74.3- 66.6---
2026-08-30 06:42 pm SW 1.9 5.1----30.03- 74.5- 66.4---
2026-08-30 06:36 pm SW 1.0 2.9----30.03- 74.7- 66.2---
2026-08-30 06:30 pm SW 1.9 5.1----30.04- 74.8- 65.5---
2026-08-30 06:24 pm- 0.0 6.0----30.04- 75.0- 65.1---
2026-08-30 06:18 pm SW 1.9 6.0----30.04-------
2026-08-30 06:12 pmSSW 2.9 8.0----30.03-------
2026-08-30 06:06 pmSSW 1.9 4.1----30.04-------
2026-08-30 06:00 pm- 0.0 5.1----30.04-0.03 75.2- 64.4---
2026-08-30 05:54 pmSSW 6.0 11.1----30.04- 75.2- 63.9---
2026-08-30 05:48 pmSSW 6.0 11.1----30.04- 75.6- 63.5---
2026-08-30 05:42 pmSSW 5.1 9.9----30.04- 75.7- 62.8---
2026-08-30 05:36 pmSSW 4.1 7.0----30.04- 76.1- 63.0---
2026-08-30 05:30 pmSSW 6.0 12.0----30.04- 76.3- 62.4---
2026-08-30 05:24 pm SW 1.9 5.1----30.04- 76.8- 62.4---
2026-08-30 05:18 pmSSW 1.9 7.0----30.04-------
2026-08-30 05:12 pm S 1.0 7.0----30.04-------
2026-08-30 05:06 pm SW 1.0 7.0----30.04-------
2026-08-30 05:00 pm- 0.0 4.1----30.04-0.04 77.5- 60.3---
2026-08-30 04:54 pm SW 1.0 4.1----30.05- 77.7- 59.9---
2026-08-30 04:48 pmSSW 1.0 4.1----30.04- 77.9- 59.5---
2026-08-30 04:42 pm SW 1.0 4.1----30.05- 77.9- 58.8---
2026-08-30 04:36 pm- 0.0 5.1----30.04- 78.3- 58.3---
2026-08-30 04:30 pm- 0.0 8.0----30.05- 78.6- 58.1---
2026-08-30 04:24 pm SW 1.9 5.1----30.05- 79.0- 56.8---
2026-08-30 04:18 pm SW 1.0 6.0----30.05-------
2026-08-30 04:12 pmWSW 1.9 8.0----30.05-------
2026-08-30 04:06 pm SW 1.0 6.0----30.05-------
2026-08-30 04:00 pm SW 1.0 6.0----30.05-0.05 79.2- 61.5---
2026-08-30 03:54 pmSSW 6.0 12.0----30.05- 78.6- 61.2---